Time;durP1;ratioP1;P1;durP2;ratioP2;P2;SDS_P1;SDS_P2;PMS_P1;PMS_P2;Temp;Humidity;BMP_temperature;BMP_pressure;BME280_temperature;BME280_humidity;BME280_pressure;Samples;Min_cycle;Max_cycle;Signal;HPM_P1;HPM_P2
2021/10/25 00:00:27;;;;;;;8.75;4.70;;;;;;;-1.38;79.29;100034.88;5056183;28;20131;-63
2021/10/25 00:02:58;;;;;;;6.68;3.95;;;;;;;-1.38;78.95;100037.47;5074136;28;20438;-63
2021/10/25 00:05:24;;;;;;;6.97;3.53;;;;;;;-1.45;79.46;100042.41;5074325;28;20036;-63
2021/10/25 00:07:50;;;;;;;6.07;3.33;;;;;;;-1.45;79.50;100039.81;5055948;28;20044;-64
2021/10/25 00:10:17;;;;;;;6.78;4.47;;;;;;;-1.39;79.35;100046.22;5074129;28;20048;-62
2021/10/25 00:12:43;;;;;;;5.93;3.42;;;;;;;-1.40;79.25;100040.19;5073341;28;20106;-62
2021/10/25 00:15:09;;;;;;;6.03;3.80;;;;;;;-1.42;79.06;100041.31;5074014;28;20040;-63
2021/10/25 00:17:36;;;;;;;8.60;4.65;;;;;;;-1.44;79.47;100040.63;5073723;28;20078;-63
2021/10/25 00:20:04;;;;;;;6.53;4.43;;;;;;;-1.46;79.21;100039.97;5056102;28;20043;-61
2021/10/25 00:22:30;;;;;;;7.00;4.43;;;;;;;-1.44;79.21;100046.66;5038930;28;20036;-63
2021/10/25 00:24:56;;;;;;;10.55;4.40;;;;;;;-1.43;79.04;100035.28;5073649;28;20429;-63
2021/10/25 00:27:22;;;;;;;6.03;3.78;;;;;;;-1.50;79.44;100051.59;5073510;28;20044;-63
2021/10/25 00:29:49;;;;;;;6.75;4.15;;;;;;;-1.50;79.49;100051.59;5055658;28;20037;-62
2021/10/25 00:32:15;;;;;;;8.70;4.22;;;;;;;-1.48;79.29;100052.28;5073276;28;20131;-64
2021/10/25 00:34:41;;;;;;;9.48;4.63;;;;;;;-1.50;79.55;100052.44;5055634;28;20150;-63
2021/10/25 00:37:07;;;;;;;8.80;4.72;;;;;;;-1.50;79.29;100054.19;5055261;28;20048;-64
2021/10/25 00:39:33;;;;;;;8.23;4.55;;;;;;;-1.51;79.61;100057.78;5073368;28;20044;-63
2021/10/25 00:42:02;;;;;;;9.25;5.30;;;;;;;-1.56;79.73;100050.38;5055010;28;20040;-64
2021/10/25 00:44:30;;;;;;;7.00;4.40;;;;;;;-1.63;80.20;100062.34;5070955;28;20037;-62
2021/10/25 00:46:57;;;;;;;7.43;4.20;;;;;;;-1.67;80.45;100059.19;5071735;28;20037;-64
2021/10/25 00:49:23;;;;;;;8.80;4.90;;;;;;;-1.69;80.49;100063.72;5073198;28;20151;-63
2021/10/25 00:51:50;;;;;;;6.82;4.18;;;;;;;-1.70;80.47;100067.28;5073023;28;20059;-62
2021/10/25 00:54:17;;;;;;;11.52;5.20;;;;;;;-1.72;80.67;100064.00;5071817;28;20520;-63
2021/10/25 00:56:45;;;;;;;8.80;5.20;;;;;;;-1.68;80.49;100069.72;5054933;28;20048;-63
2021/10/25 00:59:11;;;;;;;8.77;4.65;;;;;;;-1.71;80.58;100076.03;5054929;28;20066;-64
2021/10/25 01:01:38;;;;;;;8.77;4.65;;;;;;;-1.72;80.51;100066.59;5054795;28;20047;-63
2021/10/25 01:04:04;;;;;;;6.80;4.65;;;;;;;-1.70;80.24;100069.88;5073208;28;20062;-63
2021/10/25 01:06:30;;;;;;;10.02;5.07;;;;;;;-1.70;80.54;100075.09;5073233;28;20052;-63
2021/10/25 01:08:57;;;;;;;10.50;4.88;;;;;;;-1.71;80.54;100080.41;5054846;28;20502;-62
2021/10/25 01:11:24;;;;;;;8.60;4.47;;;;;;;-1.67;80.34;100080.00;5054987;28;20114;-62
2021/10/25 01:13:51;;;;;;;11.40;4.85;;;;;;;-1.67;80.37;100082.59;5071532;28;20051;-63
2021/10/25 01:16:17;;;;;;;11.13;5.68;;;;;;;-1.68;80.38;100078.34;5071299;28;20036;-62
2021/10/25 01:18:45;;;;;;;10.98;5.78;;;;;;;-1.65;80.11;100078.09;5071505;28;20074;-63
2021/10/25 01:21:12;;;;;;;8.20;4.50;;;;;;;-1.64;80.26;100087.50;5054638;28;20044;-63
2021/10/25 01:23:38;;;;;;;12.20;4.82;;;;;;;-1.66;80.22;100083.41;5071388;28;20044;-63
2021/10/25 01:26:04;;;;;;;8.70;5.20;;;;;;;-1.80;79.93;100063.88;5054241;28;20076;-63
2021/10/25 01:28:31;;;;;;;7.20;4.03;;;;;;;-1.72;80.40;100083.97;5054486;28;20443;-63
2021/10/25 01:30:58;;;;;;;8.27;4.57;;;;;;;-1.74;80.52;100081.50;5054349;28;20150;-63
2021/10/25 01:33:24;;;;;;;6.30;4.25;;;;;;;-1.74;80.37;100089.31;5054362;28;20051;-64
2021/10/25 01:35:50;;;;;;;8.00;4.38;;;;;;;-1.75;80.45;100098.06;5072551;28;20593;-64
2021/10/25 01:38:16;;;;;;;8.32;4.68;;;;;;;-1.81;80.55;100097.81;5070738;28;20051;-63
2021/10/25 01:40:45;;;;;;;8.43;3.95;;;;;;;-1.78;80.72;100102.72;5054365;28;20048;-62
2021/10/25 01:43:10;;;;;;;6.72;4.03;;;;;;;-1.79;80.75;100101.91;5054127;28;20548;-63
2021/10/25 01:45:36;;;;;;;8.75;4.28;;;;;;;-1.77;80.94;100109.56;5072361;28;20095;-63
2021/10/25 01:48:03;;;;;;;6.38;4.22;;;;;;;-1.83;80.63;100110.94;5037382;28;20041;-63
2021/10/25 01:50:29;;;;;;;6.32;3.85;;;;;;;-1.78;80.83;100108.75;5054210;28;20114;-61
2021/10/25 01:52:56;;;;;;;7.57;3.95;;;;;;;-1.80;80.56;100112.44;5071991;28;20048;-62
2021/10/25 01:55:22;;;;;;;19.25;7.90;;;;;;;-1.82;80.46;100117.78;5070461;28;20414;-63
2021/10/25 01:57:49;;;;;;;13.82;7.60;;;;;;;-1.77;80.45;100122.56;5053804;28;20387;-63
2021/10/25 02:00:16;;;;;;;9.65;5.90;;;;;;;-1.76;80.82;100119.84;5070573;28;20516;-63
2021/10/25 02:02:43;;;;;;;14.32;7.43;;;;;;;-1.76;80.30;100114.63;5053986;28;20048;-63
2021/10/25 02:05:28;;;;;;;12.38;6.78;;;;;;;-1.74;80.42;100127.47;5049025;28;20506;-63
2021/10/25 02:07:54;;;;;;;15.23;7.32;;;;;;;-1.82;79.99;100133.38;5049172;28;20064;-63
2021/10/25 02:10:22;;;;;;;17.13;9.38;;;;;;;-1.77;80.54;100141.56;5049124;28;20510;-63
2021/10/25 02:12:47;;;;;;;23.63;10.02;;;;;;;-1.70;80.33;100147.88;5048963;28;20095;-64
2021/10/25 02:15:13;;;;;;;36.15;15.23;;;;;;;-1.73;80.13;100160.31;5032497;28;20073;-63
2021/10/25 02:17:39;;;;;;;38.55;16.77;;;;;;;-1.81;80.21;100145.41;5048989;28;20123;-64
2021/10/25 02:20:05;;;;;;;22.88;11.50;;;;;;;-1.73;80.06;100155.13;5049005;28;20547;-62
2021/10/25 02:22:32;;;;;;;22.52;11.05;;;;;;;-1.74;80.16;100148.28;5049004;28;20041;-63
2021/10/25 02:24:58;;;;;;;12.35;7.50;;;;;;;-1.75;79.98;100150.06;5031950;28;20091;-63
2021/10/25 02:27:24;;;;;;;10.70;5.22;;;;;;;-1.74;80.04;100153.47;5048985;28;20271;-63
2021/10/25 02:29:50;;;;;;;9.93;5.30;;;;;;;-1.74;79.65;100156.06;5031965;28;20064;-64
2021/10/25 02:32:20;;;;;;;10.83;6.43;;;;;;;-1.81;80.12;100158.41;5016269;28;20048;-63
2021/10/25 02:34:47;;;;;;;9.13;4.97;;;;;;;-1.80;80.02;100161.81;5048661;28;20411;-63
2021/10/25 02:37:15;;;;;;;12.93;5.97;;;;;;;-1.84;80.11;100162.09;5053022;28;20049;-62
2021/10/25 02:39:41;;;;;;;11.88;6.55;;;;;;;-1.87;79.85;100161.56;5053056;28;20306;-61
2021/10/25 02:42:08;;;;;;;29.60;15.32;;;;;;;-1.90;80.46;100172.22;5053306;28;20067;-63
2021/10/25 02:44:34;;;;;;;17.30;8.63;;;;;;;-1.95;80.23;100179.63;5053288;28;20090;-62
2021/10/25 02:47:01;;;;;;;14.27;7.63;;;;;;;-1.98;80.34;100179.88;5053326;28;20498;-62
2021/10/25 02:49:27;;;;;;;12.05;6.57;;;;;;;-2.00;80.31;100177.44;5052868;28;20040;-64
2021/10/25 02:51:53;;;;;;;9.77;5.82;;;;;;;-2.07;80.51;100174.53;5069908;28;20090;-63
2021/10/25 02:54:20;;;;;;;9.90;5.45;;;;;;;-2.06;80.79;100171.00;5044713;28;20032;-63
2021/10/25 02:56:52;;;;;;;9.75;6.00;;;;;;;-2.08;79.96;100165.13;5030252;28;20044;-63
2021/10/25 02:59:23;;;;;;;11.20;5.47;;;;;;;-2.04;80.56;100170.03;5065804;28;20055;-63
2021/10/25 03:01:49;;;;;;;10.50;5.85;;;;;;;-2.06;80.58;100163.22;5036464;28;20044;-63
2021/10/25 03:04:15;;;;;;;10.57;4.88;;;;;;;-2.06;80.59;100167.56;5052689;28;20045;-62
2021/10/25 03:06:41;;;;;;;12.60;6.53;;;;;;;-2.07;80.38;100179.75;5053192;28;20098;-63
2021/10/25 03:09:08;;;;;;;18.27;7.35;;;;;;;-2.07;80.48;100174.53;5072829;28;20135;-61
2021/10/25 03:11:38;;;;;;;10.05;5.38;;;;;;;-2.08;80.43;100175.50;5041036;28;20095;-61
2021/10/25 03:14:03;;;;;;;10.13;5.97;;;;;;;-2.07;80.61;100174.53;5057129;28;20037;-62
2021/10/25 03:16:38;;;;;;;10.18;5.57;;;;;;;-2.08;80.18;100179.91;5073773;28;20418;-63
2021/10/25 03:19:04;;;;;;;13.93;6.43;;;;;;;-2.13;80.38;100175.09;5056711;28;20036;-62
2021/10/25 03:21:34;;;;;;;8.57;5.47;;;;;;;-2.19;80.58;100180.03;5073493;28;20542;-62
2021/10/25 03:24:00;;;;;;;11.30;6.00;;;;;;;-2.17;80.55;100184.13;5073055;28;20037;-63
2021/10/25 03:26:26;;;;;;;13.10;6.57;;;;;;;-2.19;80.84;100187.81;5057040;28;20063;-63
2021/10/25 03:28:53;;;;;;;11.10;5.50;;;;;;;-2.22;80.96;100188.09;5039955;28;20048;-63
2021/10/25 03:31:21;;;;;;;13.10;6.05;;;;;;;-2.22;80.88;100194.09;5056632;28;20040;-62
2021/10/25 03:33:48;;;;;;;11.82;5.72;;;;;;;-2.20;81.13;100197.38;5056502;28;20055;-63
2021/10/25 03:36:35;;;;;;;11.43;6.93;;;;;;;-2.13;80.99;100202.84;5059276;28;20126;-62
2021/10/25 03:39:04;;;;;;;14.48;7.13;;;;;;;-2.06;81.09;100201.34;5056277;28;20086;-62
2021/10/25 03:41:41;;;;;;;10.30;5.65;;;;;;;-1.97;80.48;100203.16;5056643;28;20534;-63
2021/10/25 03:44:17;;;;;;;13.13;6.35;;;;;;;-1.85;80.39;100206.44;5056454;28;20046;-62
2021/10/25 03:46:48;;;;;;;12.82;6.85;;;;;;;-1.75;79.94;100201.22;5056453;28;20067;-63
2021/10/25 03:54:59;;;;;;;10.35;6.90;;;;;;;-1.85;79.73;100196.84;5073791;28;20048;-62
2021/10/25 03:57:45;;;;;;;12.55;6.85;;;;;;;-1.76;79.38;100197.00;5073121;28;20036;-63
2021/10/25 04:02:56;;;;;;;10.80;6.38;;;;;;;-1.61;78.43;100191.22;5056068;28;20044;-64
2021/10/25 04:13:56;;;;;;;10.50;5.97;;;;;;;-1.46;77.67;100201.19;5055657;28;20052;-62
2021/10/25 04:27:53;;;;;;;13.10;6.93;;;;;;;-1.23;76.88;100218.13;5016111;28;20518;-64
2021/10/25 04:30:20;;;;;;;11.10;6.28;;;;;;;-1.13;76.69;100227.69;5052685;28;20051;-62
2021/10/25 04:32:47;;;;;;;8.52;5.20;;;;;;;-1.23;76.43;100228.53;5056943;28;20036;-64
2021/10/25 04:35:33;;;;;;;8.52;4.60;;;;;;;-1.24;76.19;100233.84;5052968;28;20067;-63
2021/10/25 04:38:22;;;;;;;12.20;5.72;;;;;;;-1.29;76.10;100242.09;5030185;28;20049;-62
2021/10/25 04:40:48;;;;;;;11.15;7.05;;;;;;;-1.25;76.78;100240.03;5052158;28;20426;-62
2021/10/25 04:43:15;;;;;;;13.50;7.43;;;;;;;-1.15;76.06;100246.00;5034071;28;20502;-63
2021/10/25 04:45:42;;;;;;;17.52;8.30;;;;;;;-1.13;75.95;100251.91;5050967;28;20652;-63
2021/10/25 04:48:08;;;;;;;14.30;8.02;;;;;;;-1.02;76.20;100248.34;5050808;28;20483;-63
2021/10/25 04:51:09;;;;;;;15.45;7.90;;;;;;;-0.90;75.49;100244.59;5002891;28;20062;-63
2021/10/25 04:54:04;;;;;;;12.30;6.60;;;;;;;-0.78;74.80;100247.84;5029056;28;20056;-63
2021/10/25 04:56:42;;;;;;;13.77;7.32;;;;;;;-0.68;75.18;100243.41;5050733;28;20076;-62
2021/10/25 04:59:08;;;;;;;11.98;7.22;;;;;;;-0.68;74.24;100253.81;5050335;28;20481;-63
2021/10/25 05:01:33;;;;;;;15.90;7.05;;;;;;;-0.64;74.23;100254.38;5050443;28;20061;-63
2021/10/25 05:04:00;;;;;;;9.40;5.50;;;;;;;-0.61;74.53;100257.50;5050343;28;20114;-62
2021/10/25 05:06:25;;;;;;;8.85;5.43;;;;;;;-0.51;74.27;100268.69;5043234;28;20053;-65
2021/10/25 05:08:54;;;;;;;10.57;5.50;;;;;;;-0.38;73.44;100267.53;5071527;28;20155;-61
2021/10/25 05:11:20;;;;;;;6.88;4.95;;;;;;;-0.41;72.86;100273.88;5038183;28;20135;-62
2021/10/25 05:13:47;;;;;;;6.57;4.85;;;;;;;-0.37;73.40;100282.22;5070975;28;20044;-63
2021/10/25 05:16:12;;;;;;;5.65;4.15;;;;;;;-0.27;72.93;100288.19;5037633;28;20403;-62
2021/10/25 05:18:42;;;;;;;6.38;4.25;;;;;;;-0.13;72.26;100281.66;5071151;28;20498;-65
2021/10/25 05:21:07;;;;;;;7.53;4.50;;;;;;;-0.14;71.96;100285.25;5038032;28;20048;-62
2021/10/25 05:23:34;;;;;;;5.78;4.07;;;;;;;-0.04;71.76;100288.59;5018798;28;20043;-61
2021/10/25 05:26:02;;;;;;;7.82;4.90;;;;;;;-0.02;71.10;100277.06;5047910;28;20181;-62
2021/10/25 05:28:28;;;;;;;10.20;4.70;;;;;;;0.10;71.41;100285.50;5067571;28;20041;-63
2021/10/25 05:30:53;;;;;;;9.98;5.65;;;;;;;0.21;70.98;100280.06;5068450;28;20051;-61
2021/10/25 05:33:27;;;;;;;8.75;4.85;;;;;;;0.38;71.14;100278.44;5032153;28;20044;-62
2021/10/25 05:35:54;;;;;;;7.85;5.10;;;;;;;0.49;69.92;100276.56;5048597;28;20059;-61
2021/10/25 05:38:20;;;;;;;8.48;5.25;;;;;;;0.62;70.08;100274.41;5031355;28;20045;-62
2021/10/25 05:40:46;;;;;;;7.40;4.47;;;;;;;0.80;69.54;100277.78;5048850;28;20044;-62
2021/10/25 05:43:13;;;;;;;7.35;4.43;;;;;;;0.92;69.04;100283.59;5048629;28;20474;-62
2021/10/25 05:45:39;;;;;;;6.80;4.28;;;;;;;1.10;68.27;100288.75;5065454;28;20079;-63
2021/10/25 05:48:06;;;;;;;8.15;4.10;;;;;;;1.22;67.90;100289.31;5051293;28;20036;-64
2021/10/25 05:50:32;;;;;;;6.95;3.72;;;;;;;1.27;67.51;100284.47;5067995;28;20066;-61
2021/10/25 05:53:00;;;;;;;4.97;3.95;;;;;;;1.17;67.08;100283.72;5052212;28;20403;-62
2021/10/25 05:55:28;;;;;;;5.82;4.10;;;;;;;1.16;68.01;100289.94;5050627;28;20490;-62
2021/10/25 05:57:56;;;;;;;6.32;3.78;;;;;;;1.23;67.87;100296.16;5050649;28;20048;-63
2021/10/25 06:00:33;;;;;;;7.50;4.03;;;;;;;1.31;67.78;100288.38;5049302;28;20086;-62
2021/10/25 06:03:00;;;;;;;6.50;4.32;;;;;;;1.23;67.35;100301.41;5068109;28;20071;-62
2021/10/25 06:05:30;;;;;;;5.38;4.20;;;;;;;1.09;67.73;100298.41;5030950;28;20547;-63
2021/10/25 06:07:58;;;;;;;4.05;3.58;;;;;;;1.08;67.82;100296.72;5030828;28;20530;-62
2021/10/25 06:10:27;;;;;;;5.22;3.22;;;;;;;1.13;67.06;100299.72;5048632;28;20045;-61
2021/10/25 06:12:56;;;;;;;4.50;3.72;;;;;;;1.17;66.68;100315.06;5047861;28;20388;-60
2021/10/25 06:15:41;;;;;;;7.43;3.67;;;;;;;1.18;66.68;100311.47;5033352;28;20060;-62
2021/10/25 06:18:09;;;;;;;5.28;3.67;;;;;;;1.15;67.22;100312.63;5049382;28;20044;-60
2021/10/25 06:20:38;;;;;;;5.22;3.42;;;;;;;1.21;67.34;100313.81;5044097;28;20528;-61
2021/10/25 06:23:15;;;;;;;3.97;3.33;;;;;;;1.33;67.05;100312.56;5052269;28;20070;-62
2021/10/25 06:25:45;;;;;;;5.72;3.55;;;;;;;1.44;67.02;100322.75;5067503;28;20061;-62
2021/10/25 06:28:15;;;;;;;8.25;3.35;;;;;;;1.48;66.28;100324.09;5031870;28;20135;-63
2021/10/25 06:31:11;;;;;;;4.82;2.95;;;;;;;1.59;65.99;100320.38;5065802;28;20088;-61
2021/10/25 06:33:58;;;;;;;3.55;2.50;;;;;;;1.56;66.04;100331.97;5067767;28;20524;-62
2021/10/25 06:36:48;;;;;;;4.05;2.55;;;;;;;1.68;65.54;100331.69;5066158;28;20040;-62
2021/10/25 06:39:28;;;;;;;4.25;2.42;;;;;;;1.68;65.79;100335.13;5066880;28;20032;-63
2021/10/25 06:41:57;;;;;;;3.05;2.65;;;;;;;1.72;65.89;100336.44;5065006;28;20086;-63
2021/10/25 06:44:34;;;;;;;5.90;2.70;;;;;;;1.80;65.05;100348.75;5066631;28;20044;-63
2021/10/25 06:47:13;;;;;;;4.03;2.35;;;;;;;1.89;65.39;100354.81;5048885;28;20059;-62
2021/10/25 06:49:39;;;;;;;3.45;2.40;;;;;;;2.02;64.78;100350.78;5064204;28;20048;-61
2021/10/25 06:52:05;;;;;;;5.07;2.50;;;;;;;2.00;64.92;100355.38;5047760;28;20040;-63
2021/10/25 06:54:31;;;;;;;3.05;2.13;;;;;;;1.88;64.54;100353.97;5048655;28;20040;-63
2021/10/25 06:56:58;;;;;;;2.72;2.45;;;;;;;1.87;64.61;100348.94;5049376;28;20045;-63
2021/10/25 06:59:24;;;;;;;3.92;2.20;;;;;;;1.84;64.59;100354.47;5028515;28;20422;-62
2021/10/25 07:01:50;;;;;;;4.20;2.45;;;;;;;1.84;64.47;100357.91;5064143;28;20037;-63
2021/10/25 07:04:16;;;;;;;3.53;2.50;;;;;;;2.03;64.27;100362.09;5048280;28;20044;-62
2021/10/25 07:06:42;;;;;;;3.28;2.15;;;;;;;2.11;63.87;100359.47;5047921;28;20586;-62
2021/10/25 07:09:09;;;;;;;4.32;2.40;;;;;;;2.13;63.85;100351.47;5031067;28;20131;-62
2021/10/25 07:11:38;;;;;;;2.85;2.45;;;;;;;2.20;63.89;100342.81;5048287;28;20162;-63
2021/10/25 07:14:06;;;;;;;4.43;2.60;;;;;;;2.31;63.50;100346.94;5048343;28;20124;-62
2021/10/25 07:16:40;;;;;;;4.13;2.63;;;;;;;2.23;63.33;100347.72;5044527;28;20107;-62
2021/10/25 08:07:33;;;;;;;3.80;3.13;;;;;;;2.16;63.58;100353.78;5068322;28;20048;-63
2021/10/25 08:10:35;;;;;;;4.90;2.97;;;;;;;2.26;62.72;100354.44;5056714;28;20570;-62
2021/10/25 08:13:07;;;;;;;3.45;2.60;;;;;;;2.30;62.87;100357.59;5034581;28;20167;-62
2021/10/25 08:15:38;;;;;;;5.47;3.30;;;;;;;2.32;62.39;100335.50;5067296;28;20091;-63
2021/10/25 08:18:07;;;;;;;7.00;3.80;;;;;;;2.37;61.96;100346.31;5046329;28;20494;-64
2021/10/25 08:20:34;;;;;;;6.72;3.95;;;;;;;2.40;62.39;100339.94;5053375;28;20052;-65
2021/10/25 08:23:01;;;;;;;12.30;4.32;;;;;;;2.28;62.39;100342.84;5053500;28;20087;-65
2021/10/25 08:25:28;;;;;;;6.43;3.90;;;;;;;2.39;62.25;100346.97;5051961;28;20083;-66
2021/10/25 08:28:02;;;;;;;7.88;4.30;;;;;;;2.47;61.78;100341.75;5050803;28;20040;-64
2021/10/25 08:30:28;;;;;;;12.05;4.20;;;;;;;2.55;61.33;100342.72;5068298;28;20426;-63
2021/10/25 08:33:05;;;;;;;10.38;4.57;;;;;;;2.52;61.02;100343.06;5070560;28;20062;-65
2021/10/25 08:41:01;;;;;;;8.35;4.25;;;;;;;2.77;60.58;100357.00;5038140;28;20457;-65
2021/10/25 08:43:29;;;;;;;8.60;3.95;;;;;;;2.88;60.68;100354.03;5003148;28;20305;-63
2021/10/25 08:45:57;;;;;;;7.97;4.18;;;;;;;3.03;59.09;100351.59;5033773;28;20460;-68
2021/10/25 08:48:24;;;;;;;4.68;3.17;;;;;;;3.11;59.28;100348.97;5048128;28;20076;-65
2021/10/25 08:50:51;;;;;;;7.07;3.78;;;;;;;3.32;58.27;100359.75;5068572;28;20420;-64
2021/10/25 08:53:18;;;;;;;7.32;3.70;;;;;;;3.36;57.54;100355.81;5070672;28;20037;-70
2021/10/25 08:55:51;;;;;;;8.05;3.70;;;;;;;3.40;57.31;100349.25;5053063;28;20490;-68
2021/10/25 08:58:19;;;;;;;9.93;4.28;;;;;;;3.42;57.37;100351.72;5036513;28;20072;-68
2021/10/25 09:00:50;;;;;;;8.93;4.13;;;;;;;3.37;58.46;100354.81;5034005;28;20417;-67
2021/10/25 09:03:35;;;;;;;6.90;4.72;;;;;;;3.34;58.42;100347.28;5037332;28;20055;-69
2021/10/25 09:06:12;;;;;;;6.28;3.92;;;;;;;3.26;57.96;100331.56;5052101;28;20554;-66
2021/10/25 09:08:38;;;;;;;9.55;4.40;;;;;;;3.30;58.39;100343.38;5068599;28;20084;-65
2021/10/25 09:11:04;;;;;;;8.18;3.88;;;;;;;3.33;57.81;100342.25;5051668;28;20056;-66
2021/10/25 09:13:34;;;;;;;8.38;4.10;;;;;;;3.42;57.20;100336.00;5069790;28;20327;-66
2021/10/25 09:16:03;;;;;;;9.07;4.05;;;;;;;3.52;57.50;100331.34;5051818;28;20486;-68
2021/10/25 09:18:55;;;;;;;5.70;4.00;;;;;;;3.58;56.52;100324.63;5007941;28;20053;-64
2021/10/25 09:21:33;;;;;;;6.63;3.90;;;;;;;3.51;56.29;100329.72;4988141;28;20105;-68
2021/10/25 09:24:00;;;;;;;8.32;3.65;;;;;;;3.67;56.27;100323.63;5004642;28;20062;-63
2021/10/25 09:26:30;;;;;;;7.88;4.85;;;;;;;3.70;56.26;100325.09;5005372;28;20153;-65
2021/10/25 09:29:03;;;;;;;7.43;4.53;;;;;;;3.68;55.35;100324.41;4975613;28;20061;-66
2021/10/25 09:31:34;;;;;;;9.52;5.03;;;;;;;3.74;56.30;100329.84;4990306;28;20076;-70
2021/10/25 09:34:08;;;;;;;6.10;3.80;;;;;;;3.69;56.28;100328.69;5005313;28;20058;-64
2021/10/25 09:36:59;;;;;;;6.63;4.30;;;;;;;3.77;55.95;100326.06;5005527;28;20050;-64
2021/10/25 09:39:41;;;;;;;8.35;4.13;;;;;;;3.83;55.56;100322.75;5005912;28;20380;-65
2021/10/25 09:42:43;;;;;;;5.57;3.60;;;;;;;3.88;56.58;100323.03;5006602;28;20488;-64
2021/10/25 09:50:50;;;;;;;7.25;3.17;;;;;;;4.03;54.81;100331.84;5043106;28;20138;-66
2021/10/25 09:53:34;;;;;;;4.30;2.83;;;;;;;3.91;54.75;100324.50;5052398;28;20045;-66
2021/10/25 09:56:03;;;;;;;6.25;3.05;;;;;;;3.91;55.33;100329.75;5033711;28;20051;-65
2021/10/25 09:58:48;;;;;;;2.83;2.50;;;;;;;3.72;54.95;100323.94;5051414;28;20044;-65
2021/10/25 10:01:25;;;;;;;10.82;4.32;;;;;;;3.74;54.92;100327.22;5068346;28;20048;-64
2021/10/25 10:03:52;;;;;;;4.65;2.83;;;;;;;3.69;56.16;100321.66;5001719;28;20040;-64
2021/10/25 10:06:42;;;;;;;5.55;3.38;;;;;;;3.82;56.29;100327.19;5029406;28;20099;-65
2021/10/25 10:09:09;;;;;;;4.10;2.90;;;;;;;3.70;55.72;100327.69;5027415;28;20442;-64
2021/10/25 10:11:35;;;;;;;4.07;2.85;;;;;;;3.76;55.24;100325.22;5010028;28;20068;-66
2021/10/25 10:14:02;;;;;;;8.35;3.05;;;;;;;3.72;54.22;100326.56;5027930;28;20041;-64
2021/10/25 10:16:39;;;;;;;6.97;3.70;;;;;;;3.76;54.34;100322.59;5012308;28;20572;-64
2021/10/25 10:19:08;;;;;;;4.95;3.60;;;;;;;3.78;54.11;100307.50;5012239;28;20033;-66
2021/10/25 10:22:06;;;;;;;3.92;3.17;;;;;;;3.84;54.21;100319.13;4999060;28;20061;-68
2021/10/25 10:24:53;;;;;;;6.35;3.60;;;;;;;3.83;53.62;100313.06;5011038;28;20061;-65
2021/10/25 10:27:25;;;;;;;5.00;3.35;;;;;;;3.86;53.71;100304.84;5026995;28;20087;-66
2021/10/25 10:29:53;;;;;;;6.80;3.40;;;;;;;3.94;53.54;100305.78;5026452;28;20170;-67
2021/10/25 10:32:39;;;;;;;6.32;3.17;;;;;;;4.06;53.53;100292.13;5005656;28;20054;-65
2021/10/25 10:35:26;;;;;;;6.70;3.70;;;;;;;4.18;53.27;100289.13;4989425;28;20116;-66
2021/10/25 10:38:31;;;;;;;6.93;3.75;;;;;;;3.97;53.53;100293.19;4959803;28;20055;-65
2021/10/25 10:41:17;;;;;;;4.38;3.55;;;;;;;3.99;53.46;100293.00;4965121;28;20042;-66
2021/10/25 10:44:19;;;;;;;5.57;3.60;;;;;;;3.98;53.75;100294.81;4963289;28;20058;-66
2021/10/25 10:46:51;;;;;;;5.28;3.15;;;;;;;4.02;52.69;100297.88;4948440;28;20051;-69
2021/10/25 10:49:44;;;;;;;5.30;3.40;;;;;;;4.12;53.48;100289.78;4983090;28;20042;-64
2021/10/25 11:00:44;;;;;;;5.05;3.15;;;;;;;4.06;52.88;100278.22;4968333;28;20133;-67
2021/10/25 11:03:27;;;;;;;4.28;3.15;;;;;;;3.91;53.29;100262.34;4971935;28;20667;-65
2021/10/25 11:05:54;;;;;;;6.05;3.40;;;;;;;3.84;53.60;100269.28;4965569;28;20262;-65
2021/10/25 11:08:24;;;;;;;4.82;2.97;;;;;;;3.83;53.68;100270.28;4984071;28;20095;-65
2021/10/25 11:11:00;;;;;;;4.38;3.03;;;;;;;3.92;54.01;100269.25;5012542;28;20053;-65
2021/10/25 11:13:27;;;;;;;6.00;2.95;;;;;;;3.95;53.09;100268.09;5005471;28;20098;-65
2021/10/25 11:18:45;;;;;;;11.07;6.10;;;;;;;3.94;53.58;100272.53;5061799;28;20044;-67
2021/10/25 11:21:33;;;;;;;5.70;3.20;;;;;;;3.91;54.06;100267.59;5066725;28;20381;-71
2021/10/25 11:24:11;;;;;;;6.22;3.92;;;;;;;3.96;54.16;100264.47;5066715;28;20095;-67
2021/10/25 11:26:40;;;;;;;8.57;3.42;;;;;;;4.06;53.40;100260.66;5066870;28;20101;-65
2021/10/25 11:29:21;;;;;;;7.45;2.90;;;;;;;4.04;53.34;100252.13;5072043;28;20119;-68
2021/10/25 11:31:50;;;;;;;5.78;3.65;;;;;;;4.02;53.20;100248.84;5073351;28;20051;-67
2021/10/25 11:34:20;;;;;;;4.53;3.17;;;;;;;4.08;53.58;100239.47;5073531;28;20482;-65
2021/10/25 11:36:59;;;;;;;;;;;;;;;4.08;53.80;100236.84;5075816;28;20040;-62
2021/10/25 11:39:32;;;;;;;6.40;3.05;;;;;;;4.03;53.96;100234.78;5071004;28;19920;-67
2021/10/25 11:41:58;;;;;;;5.05;2.92;;;;;;;4.06;53.98;100237.03;5071579;28;20040;-68
2021/10/25 11:44:24;;;;;;;5.72;3.65;;;;;;;4.04;53.45;100239.00;5072251;28;20147;-70
2021/10/25 11:46:50;;;;;;;7.13;3.35;;;;;;;4.07;53.36;100241.28;5071542;28;20036;-69
2021/10/25 11:49:23;;;;;;;5.57;2.75;;;;;;;3.99;53.53;100233.47;5072490;28;20040;-68
2021/10/25 11:51:50;;;;;;;3.58;2.63;;;;;;;4.01;53.06;100238.56;5072420;28;20070;-68
2021/10/25 11:54:16;;;;;;;3.92;2.42;;;;;;;4.02;53.34;100240.19;5071317;28;20044;-67
2021/10/25 11:56:50;;;;;;;5.53;3.10;;;;;;;4.06;53.35;100233.59;5069240;28;20441;-69
2021/10/25 11:59:18;;;;;;;5.75;2.70;;;;;;;4.11;53.65;100223.38;5068175;28;20068;-65
2021/10/25 12:01:45;;;;;;;5.38;2.67;;;;;;;4.14;53.24;100230.91;5068392;28;20091;-66
2021/10/25 12:04:12;;;;;;;4.82;3.25;;;;;;;4.17;53.70;100227.94;5069901;28;20053;-65
2021/10/25 12:06:38;;;;;;;4.05;2.75;;;;;;;4.15;53.10;100221.22;5070355;28;20048;-64
2021/10/25 12:09:08;;;;;;;7.45;2.50;;;;;;;4.21;53.65;100229.22;5070134;28;20045;-67
2021/10/25 12:12:03;;;;;;;5.13;3.10;;;;;;;4.16;53.05;100221.06;5051832;28;20205;-68
2021/10/25 12:14:32;;;;;;;8.98;2.85;;;;;;;4.04;54.07;100215.41;5052364;28;20083;-67
2021/10/25 12:16:59;;;;;;;7.45;3.40;;;;;;;4.06;53.42;100215.25;5051919;28;20082;-66
2021/10/25 12:19:25;;;;;;;6.75;4.25;;;;;;;4.15;53.98;100216.81;5069710;28;20143;-66
2021/10/25 12:21:51;;;;;;;3.05;2.72;;;;;;;4.19;53.84;100217.28;5069547;28;20048;-67
2021/10/25 12:24:19;;;;;;;4.60;3.20;;;;;;;4.23;54.15;100213.28;5069206;28;20037;-63
2021/10/25 12:26:59;;;;;;;7.60;3.10;;;;;;;4.32;53.33;100215.69;5070369;28;20087;-67
2021/10/25 12:29:25;;;;;;;12.00;3.47;;;;;;;4.42;53.55;100198.88;5071972;28;20070;-66
2021/10/25 12:31:52;;;;;;;5.95;3.30;;;;;;;4.58;52.92;100203.97;5070573;28;20033;-65
2021/10/25 12:34:19;;;;;;;9.45;3.35;;;;;;;4.61;52.95;100195.75;5071070;28;20040;-64
2021/10/25 12:36:46;;;;;;;8.65;2.78;;;;;;;4.70;52.18;100193.84;5053835;28;20068;-67
2021/10/25 12:39:17;;;;;;;4.22;2.80;;;;;;;4.76;52.30;100199.22;5069874;28;20139;-63
2021/10/25 12:41:57;;;;;;;6.75;4.05;;;;;;;4.85;51.82;100186.00;5071642;28;20135;-66
2021/10/25 12:44:36;;;;;;;7.05;3.45;;;;;;;4.87;51.96;100192.69;5072433;28;20037;-62
2021/10/25 12:47:13;;;;;;;6.20;3.03;;;;;;;4.77;52.77;100192.16;5021226;28;20048;-61
2021/10/25 12:49:45;;;;;;;6.30;3.33;;;;;;;4.78;52.09;100184.09;5021281;28;20070;-63
2021/10/25 12:52:11;;;;;;;8.70;3.75;;;;;;;4.87;51.92;100191.88;5053082;28;20048;-65
2021/10/25 12:54:39;;;;;;;6.82;4.07;;;;;;;4.80;52.21;100178.66;5071605;28;20044;-64
2021/10/25 12:57:26;;;;;;;9.10;3.25;;;;;;;4.79;53.03;100174.38;5070123;28;20153;-63
2021/10/25 13:00:09;;;;;;;7.00;3.58;;;;;;;4.72;52.41;100176.13;5053378;28;20612;-64
2021/10/25 13:02:47;;;;;;;4.65;2.83;;;;;;;4.50;52.92;100165.50;5062456;28;20080;-63
2021/10/25 13:05:17;;;;;;;5.22;2.90;;;;;;;4.42;53.83;100162.13;5050292;28;20108;-63
2021/10/25 13:07:45;;;;;;;5.68;2.95;;;;;;;4.39;53.40;100159.88;5032431;28;20037;-63
2021/10/25 13:10:11;;;;;;;6.00;3.72;;;;;;;4.42;53.33;100162.13;5066153;28;20047;-66
2021/10/25 13:12:37;;;;;;;4.82;2.75;;;;;;;4.22;53.37;100154.75;5061126;28;20029;-64
2021/10/25 13:15:03;;;;;;;5.93;3.13;;;;;;;4.12;54.38;100154.19;5070262;28;20398;-65
2021/10/25 13:17:29;;;;;;;4.47;2.88;;;;;;;4.10;54.44;100161.41;5068817;28;20036;-64
2021/10/25 13:19:55;;;;;;;4.30;3.00;;;;;;;4.08;54.54;100152.88;5070577;28;20122;-64
2021/10/25 13:22:21;;;;;;;6.85;2.88;;;;;;;4.04;54.55;100141.13;5068784;28;20047;-64